createdAt,value
2023-07-15T00:00:38.443Z,96811.28
2023-07-15T00:03:40.011Z,96815.78
2023-07-15T00:06:41.779Z,96817.25
2023-07-15T00:09:43.296Z,96809.88
2023-07-15T00:12:44.833Z,96819.13
2023-07-15T00:15:51.189Z,96816.78
2023-07-15T00:18:52.848Z,96812.19
2023-07-15T00:21:54.432Z,96809.41
2023-07-15T00:24:56.376Z,96805.75
2023-07-15T00:27:57.913Z,96812.19
2023-07-15T00:30:59.417Z,96809.75
2023-07-15T00:34:01.379Z,96810.69
2023-07-15T00:37:02.975Z,96815.00
2023-07-15T00:40:07.033Z,96812.16
2023-07-15T00:43:46.453Z,96813.34
2023-07-15T00:46:56.088Z,96806.63
2023-07-15T00:49:58.110Z,96801.97
2023-07-15T00:52:59.798Z,96798.50
2023-07-15T00:56:01.427Z,96802.63
2023-07-15T00:59:03.495Z,96801.56
2023-07-15T01:02:05.221Z,96806.94
2023-07-15T01:05:07.823Z,96806.94
2023-07-15T01:08:09.365Z,96800.50
2023-07-15T01:11:12.849Z,96795.63
2023-07-15T01:14:14.413Z,96796.47
2023-07-15T01:17:16.402Z,96796.78
2023-07-15T01:20:23.680Z,96794.09
2023-07-15T01:23:26.133Z,96791.66
2023-07-15T01:26:27.658Z,96784.34
2023-07-15T01:29:29.173Z,96782.72
2023-07-15T01:32:30.764Z,96788.09
2023-07-15T01:35:32.324Z,96780.38
2023-07-15T01:38:34.669Z,96784.44
2023-07-15T01:41:36.273Z,96780.38
2023-07-15T01:44:37.803Z,96785.41
2023-07-15T01:47:39.372Z,96778.97
2023-07-15T01:50:41.325Z,96779.81
2023-07-15T01:53:42.905Z,96774.47
2023-07-15T01:56:44.442Z,96770.47
2023-07-15T01:59:45.959Z,96769.91
2023-07-15T02:02:48.295Z,96770.94
2023-07-15T02:05:52.358Z,96762.44
2023-07-15T02:08:56.104Z,96767.22
2023-07-15T02:11:58.605Z,96771.50
2023-07-15T02:15:00.142Z,96757.78
2023-07-15T02:18:01.808Z,96764.59
2023-07-15T02:21:03.680Z,96766.94
2023-07-15T02:24:05.486Z,96751.84
2023-07-15T02:27:06.984Z,96755.00
2023-07-15T02:30:10.053Z,96753.75
2023-07-15T02:33:12.129Z,96748.59
2023-07-15T02:36:15.127Z,96751.41
2023-07-15T02:39:17.805Z,96751.28
2023-07-15T02:42:19.301Z,96748.28
2023-07-15T02:45:20.979Z,96748.94
2023-07-15T02:48:23.244Z,96738.16
2023-07-15T02:51:25.290Z,96746.34
2023-07-15T02:54:26.870Z,96741.13
2023-07-15T02:57:29.227Z,96742.19
2023-07-15T03:00:30.714Z,96733.31
2023-07-15T03:03:35.214Z,96734.72
2023-07-15T03:06:37.546Z,96725.44
2023-07-15T03:09:39.086Z,96725.75
2023-07-15T03:12:41.075Z,96715.31
2023-07-15T03:15:43.543Z,96713.22
2023-07-15T03:18:45.249Z,96713.81
2023-07-15T03:21:46.884Z,96712.75
2023-07-15T03:24:48.783Z,96712.41
2023-07-15T03:27:51.001Z,96703.59
2023-07-15T03:30:53.222Z,96712.56
2023-07-15T03:33:54.989Z,96700.22
2023-07-15T03:36:56.489Z,96705.69
2023-07-15T03:39:58.389Z,96703.59
2023-07-15T03:42:59.880Z,96701.94
2023-07-15T03:46:01.495Z,96700.56
2023-07-15T03:49:03.142Z,96711.03
2023-07-15T03:52:04.996Z,96718.72
2023-07-15T03:55:07.298Z,96716.28
2023-07-15T03:58:09.736Z,96724.31
2023-07-15T04:01:11.888Z,96717.66
2023-07-15T04:04:13.514Z,96717.31
2023-07-15T04:07:15.118Z,96720.38
2023-07-15T04:10:17.244Z,96714.31
2023-07-15T04:13:19.049Z,96711.41
2023-07-15T04:16:20.633Z,96707.53
2023-07-15T04:19:22.199Z,96703.34
2023-07-15T04:22:24.810Z,96700.78
2023-07-15T04:25:26.333Z,96706.31
2023-07-15T04:28:27.854Z,96705.69
2023-07-15T04:31:29.590Z,96700.75
2023-07-15T04:34:31.204Z,96694.28
2023-07-15T04:37:32.752Z,96699.81
2023-07-15T04:40:34.268Z,96700.56
2023-07-15T04:43:35.768Z,96703.56
2023-07-15T04:46:38.095Z,96700.72
2023-07-15T04:49:39.715Z,96704.75
2023-07-15T04:52:41.242Z,96699.03
2023-07-15T04:55:43.637Z,96696.69
2023-07-15T04:58:45.201Z,96699.41
2023-07-15T05:01:46.722Z,96698.66
2023-07-15T05:04:48.872Z,96705.78
2023-07-15T05:07:58.348Z,96695.41
2023-07-15T05:11:00.796Z,96696.59
2023-07-15T05:14:02.437Z,96686.78
2023-07-15T05:17:07.530Z,96678.31
2023-07-15T05:20:09.542Z,96680.53
2023-07-15T05:23:11.239Z,96669.41
2023-07-15T05:26:12.855Z,96665.72
2023-07-15T05:29:14.372Z,96664.00
2023-07-15T05:32:16.004Z,96663.25
2023-07-15T05:35:17.848Z,96657.16
2023-07-15T05:38:22.818Z,96652.66
2023-07-15T05:41:25.748Z,96660.06
2023-07-15T05:44:28.021Z,96655.00
2023-07-15T05:47:29.803Z,96648.38
2023-07-15T05:50:35.965Z,96653.03
2023-07-15T05:53:37.502Z,96643.41
2023-07-15T05:56:39.553Z,96641.88
2023-07-15T05:59:41.758Z,96641.94
2023-07-15T06:02:43.805Z,96644.38
2023-07-15T06:05:45.469Z,96638.19
2023-07-15T06:08:47.280Z,96638.75
2023-07-15T06:11:48.829Z,96635.00
2023-07-15T06:14:56.920Z,96632.00
2023-07-15T06:18:00.417Z,96626.56
2023-07-15T06:21:02.682Z,96633.28
2023-07-15T06:24:07.903Z,96626.81
2023-07-15T06:27:09.596Z,96630.81
2023-07-15T06:30:11.410Z,96638.59
2023-07-15T06:33:26.622Z,96649.28
2023-07-15T06:36:30.074Z,96644.03
2023-07-15T06:39:31.783Z,96656.88
2023-07-15T06:42:35.866Z,96651.06
2023-07-15T06:45:37.587Z,96651.00
2023-07-15T06:48:39.273Z,96644.28
2023-07-15T06:51:40.876Z,96653.66
2023-07-15T06:54:42.438Z,96648.84
2023-07-15T06:57:44.010Z,96646.81
2023-07-15T07:00:45.547Z,96646.19
2023-07-15T07:03:47.182Z,96647.44
2023-07-15T07:06:48.782Z,96638.34
2023-07-15T07:09:50.562Z,96642.25
2023-07-15T07:12:52.380Z,96642.97
2023-07-15T07:15:58.208Z,96644.25
2023-07-15T07:18:59.994Z,96636.44
2023-07-15T07:22:01.569Z,96628.53
2023-07-15T07:25:03.478Z,96618.38
2023-07-15T07:28:05.047Z,96619.38
2023-07-15T07:31:06.974Z,96615.06
2023-07-15T07:34:08.485Z,96616.16
2023-07-15T07:37:10.047Z,96620.41
2023-07-15T07:40:12.310Z,96621.09
2023-07-15T07:43:14.135Z,96622.88
2023-07-15T07:46:15.781Z,96630.28
2023-07-15T07:49:18.160Z,96629.66
2023-07-15T07:52:19.733Z,96630.66
2023-07-15T07:55:21.252Z,96634.66
2023-07-15T07:58:22.951Z,96634.69
2023-07-15T08:01:25.509Z,96632.63
2023-07-15T08:04:27.983Z,96633.34
2023-07-15T08:07:30.148Z,96631.34
2023-07-15T08:10:31.813Z,96630.56
2023-07-15T08:13:33.331Z,96628.03
2023-07-15T08:16:37.191Z,96623.38
2023-07-15T08:19:38.772Z,96613.22
2023-07-15T08:22:40.303Z,96609.38
2023-07-15T08:25:41.975Z,96603.75
2023-07-15T08:28:43.450Z,96600.56
2023-07-15T08:31:45.007Z,96597.09
2023-07-15T08:35:06.310Z,96601.38
2023-07-15T08:38:07.836Z,96599.97
2023-07-15T08:41:10.228Z,96590.22
2023-07-15T08:44:12.120Z,96590.41
2023-07-15T08:47:18.498Z,96592.19
2023-07-15T08:50:20.826Z,96591.06
2023-07-15T08:53:27.013Z,96593.44
2023-07-15T08:56:30.307Z,96592.81
2023-07-15T08:59:32.206Z,96584.16
2023-07-15T09:02:35.931Z,96591.69
2023-07-15T09:05:37.499Z,96591.13
2023-07-15T09:08:42.061Z,96595.13
2023-07-15T09:11:44.815Z,96615.84
2023-07-15T09:14:54.049Z,96638.06
2023-07-15T09:17:59.065Z,96658.06
2023-07-15T09:21:14.732Z,96657.63
2023-07-15T09:24:16.744Z,96668.91
2023-07-15T09:27:18.270Z,96691.94
2023-07-15T09:30:20.609Z,96695.66
2023-07-15T09:33:32.125Z,96703.19
2023-07-15T09:36:33.906Z,96707.72
2023-07-15T09:39:35.734Z,96705.38
2023-07-15T09:42:49.626Z,96703.00
2023-07-15T09:45:51.485Z,96708.38
2023-07-15T09:48:53.133Z,96696.53
2023-07-15T09:51:55.073Z,96692.59
2023-07-15T09:54:57.221Z,96688.78
2023-07-15T09:58:09.338Z,96688.09
2023-07-15T10:01:38.435Z,96688.41
2023-07-15T10:04:49.896Z,96693.72
2023-07-15T10:07:52.997Z,96696.03
2023-07-15T10:10:54.574Z,96693.09
2023-07-15T10:13:56.151Z,96708.38
2023-07-15T10:17:33.955Z,96694.41
2023-07-15T10:20:35.605Z,96693.56
2023-07-15T10:23:37.354Z,96698.53
2023-07-15T10:26:49.934Z,96682.09
2023-07-15T10:30:14.167Z,96691.94
2023-07-15T10:33:25.053Z,96691.81
2023-07-15T10:36:45.845Z,96700.34
2023-07-15T10:39:47.858Z,96693.88
2023-07-15T10:43:06.585Z,96691.28
2023-07-15T10:46:19.122Z,96685.31
2023-07-15T10:49:22.764Z,96685.75
2023-07-15T10:52:25.615Z,96684.94
2023-07-15T10:55:27.097Z,96679.97
2023-07-15T10:58:32.832Z,96677.25
2023-07-15T11:01:35.806Z,96679.63
2023-07-15T11:04:39.455Z,96659.41
2023-07-15T11:07:41.144Z,96651.50
2023-07-15T11:10:44.366Z,96643.13
2023-07-15T11:13:47.566Z,96647.78
2023-07-15T11:17:00.868Z,96629.69
2023-07-15T11:20:07.299Z,96641.34
2023-07-15T11:23:09.670Z,96636.09
2023-07-15T11:26:11.564Z,96601.28
2023-07-15T11:29:20.004Z,96628.28
2023-07-15T11:32:21.744Z,96617.53
2023-07-15T11:35:23.361Z,96593.63
2023-07-15T11:38:34.476Z,96604.72
2023-07-15T11:41:37.901Z,96583.00
2023-07-15T11:44:40.660Z,96587.03
2023-07-15T11:47:43.219Z,96585.41
2023-07-15T11:50:44.800Z,96575.44
2023-07-15T11:53:46.712Z,96577.72
2023-07-15T11:56:48.886Z,96570.16
2023-07-15T11:59:50.813Z,96565.66
2023-07-15T12:02:52.662Z,96563.53
2023-07-15T12:05:54.351Z,96558.38
2023-07-15T12:09:08.518Z,96560.31
2023-07-15T12:12:10.136Z,96551.72
2023-07-15T12:15:12.945Z,96542.63
2023-07-15T12:18:14.502Z,96540.06
2023-07-15T12:21:16.398Z,96544.09
2023-07-15T12:24:18.005Z,96553.78
2023-07-15T12:27:19.513Z,96553.75
2023-07-15T12:30:21.129Z,96547.28
2023-07-15T12:33:22.750Z,96550.09
2023-07-15T12:36:24.322Z,96547.03
2023-07-15T12:39:25.823Z,96542.03
2023-07-15T12:42:27.381Z,96548.31
2023-07-15T12:45:28.954Z,96549.56
2023-07-15T12:48:31.204Z,96554.63
2023-07-15T12:51:32.960Z,96567.81
2023-07-15T12:54:35.283Z,96557.81
2023-07-15T12:57:36.844Z,96576.81
2023-07-15T13:00:38.601Z,96568.31
2023-07-15T13:03:40.275Z,96572.09
2023-07-15T13:06:42.359Z,96578.06
2023-07-15T13:09:45.238Z,96583.28
2023-07-15T13:12:46.956Z,96605.81
2023-07-15T13:15:48.407Z,96596.66
2023-07-15T13:18:49.921Z,96594.59
2023-07-15T13:21:51.900Z,96590.63
2023-07-15T13:24:53.534Z,96602.28
2023-07-15T13:27:55.388Z,96582.63
2023-07-15T13:30:56.869Z,96592.34
2023-07-15T13:33:58.467Z,96595.00
2023-07-15T13:36:59.961Z,96618.81
2023-07-15T13:40:01.593Z,96613.31
2023-07-15T13:43:03.224Z,96620.19
2023-07-15T13:46:04.835Z,96624.56
2023-07-15T13:49:06.317Z,96610.31
2023-07-15T13:52:08.093Z,96612.72
2023-07-15T13:55:09.784Z,96617.81
2023-07-15T13:58:11.345Z,96638.16
2023-07-15T14:01:13.133Z,96617.97
2023-07-15T14:04:15.171Z,96617.31
2023-07-15T14:07:16.852Z,96621.47
2023-07-15T14:10:18.455Z,96613.81
2023-07-15T14:13:19.968Z,96608.41
2023-07-15T14:16:21.504Z,96607.22
2023-07-15T14:19:23.152Z,96598.00
2023-07-15T14:22:38.683Z,96585.22
2023-07-15T14:25:45.227Z,96573.38
2023-07-15T14:28:46.707Z,96576.59
2023-07-15T14:31:48.314Z,96577.69
2023-07-15T14:34:49.991Z,96572.00
2023-07-15T14:37:51.388Z,96561.91
2023-07-15T14:40:53.012Z,96579.47
2023-07-15T14:43:54.571Z,96582.47
2023-07-15T14:46:56.241Z,96590.44
2023-07-15T14:49:57.826Z,96580.47
2023-07-15T14:53:01.441Z,96593.31
2023-07-15T14:56:04.720Z,96589.66
2023-07-15T14:59:06.467Z,96587.34
2023-07-15T15:02:08.025Z,96586.53
2023-07-15T15:05:10.408Z,96576.63
2023-07-15T15:08:12.804Z,96586.22
2023-07-15T15:11:14.602Z,96580.63
2023-07-15T15:14:16.619Z,96575.91
2023-07-15T15:17:18.394Z,96583.66
2023-07-15T15:20:20.250Z,96578.81
2023-07-15T15:23:22.749Z,96577.66
2023-07-15T15:26:24.366Z,96569.94
2023-07-15T15:29:26.935Z,96577.56
2023-07-15T15:32:28.535Z,96563.59
2023-07-15T15:35:30.248Z,96567.44
2023-07-15T15:38:32.041Z,96567.03
2023-07-15T15:41:33.572Z,96563.44
2023-07-15T15:44:35.113Z,96570.84
2023-07-15T15:47:37.024Z,96554.22
2023-07-15T15:50:38.613Z,96549.06
2023-07-15T15:53:40.120Z,96554.31
2023-07-15T15:56:41.763Z,96552.81
2023-07-15T15:59:43.268Z,96554.41
2023-07-15T16:02:44.926Z,96553.72
2023-07-15T16:05:46.685Z,96536.66
2023-07-15T16:08:48.583Z,96531.22
2023-07-15T16:11:50.141Z,96527.41
2023-07-15T16:14:51.704Z,96524.25
2023-07-15T16:17:53.290Z,96526.13
2023-07-15T16:20:54.845Z,96528.03
2023-07-15T16:23:56.380Z,96555.16
2023-07-15T16:26:58.223Z,96533.56
2023-07-15T16:29:59.921Z,96531.56
2023-07-15T16:33:01.474Z,96527.66
2023-07-15T16:36:03.924Z,96524.38
2023-07-15T16:39:05.479Z,96536.66
2023-07-15T16:42:07.064Z,96529.59
2023-07-15T16:45:08.962Z,96522.03
2023-07-15T16:48:10.489Z,96500.28
2023-07-15T16:51:12.086Z,96502.94
2023-07-15T16:54:13.811Z,96489.28
2023-07-15T16:57:15.276Z,96492.84
2023-07-15T17:00:16.778Z,96485.88
2023-07-15T17:03:18.478Z,96477.84
2023-07-15T17:06:20.116Z,96465.69
2023-07-15T17:09:24.413Z,96460.50
2023-07-15T17:12:25.999Z,96473.09
2023-07-15T17:15:27.606Z,96486.00
2023-07-15T17:18:29.367Z,96492.94
2023-07-15T17:21:31.046Z,96493.31
2023-07-15T17:24:32.562Z,96473.81
2023-07-15T17:27:34.065Z,96487.75
2023-07-15T17:30:35.578Z,96477.03
2023-07-15T17:33:37.141Z,96478.47
2023-07-15T17:36:38.664Z,96484.19
2023-07-15T17:39:40.247Z,96496.91
2023-07-15T17:42:41.791Z,96488.97
2023-07-15T17:45:43.902Z,96514.00
2023-07-15T17:48:45.418Z,96512.03
2023-07-15T17:51:47.549Z,96514.97
2023-07-15T17:54:49.065Z,96531.53
2023-07-15T17:57:50.573Z,96578.88
2023-07-15T18:00:52.188Z,96630.22
2023-07-15T18:03:54.347Z,96690.06
2023-07-15T18:06:55.969Z,96603.66
2023-07-15T18:09:57.513Z,96604.56
2023-07-15T18:13:00.045Z,96606.50
2023-07-15T18:16:04.648Z,96595.72
2023-07-15T18:19:06.725Z,96573.81
2023-07-15T18:22:11.026Z,96561.09
2023-07-15T18:25:12.592Z,96563.00
2023-07-15T18:28:14.096Z,96575.09
2023-07-15T18:31:15.858Z,96587.44
2023-07-15T18:34:24.432Z,96598.72
2023-07-15T18:37:27.505Z,96589.44
2023-07-15T18:40:30.436Z,96576.22
2023-07-15T18:43:32.526Z,96551.44
2023-07-15T18:46:34.174Z,96574.53
2023-07-15T18:49:36.080Z,96619.94
2023-07-15T18:52:37.751Z,96703.69
2023-07-15T18:55:39.341Z,96761.84
2023-07-15T18:58:40.956Z,96845.78
2023-07-15T19:01:42.527Z,96871.63
2023-07-15T19:04:44.178Z,96892.97
2023-07-15T19:07:45.718Z,96745.69
2023-07-15T19:10:47.285Z,96562.72
2023-07-15T19:13:49.018Z,96703.50
2023-07-15T19:16:51.362Z,96737.97
2023-07-15T19:19:53.002Z,96744.47
2023-07-15T19:22:54.693Z,96756.75
2023-07-15T19:25:56.348Z,96754.88
2023-07-15T19:28:57.915Z,96739.50
2023-07-15T19:31:59.394Z,96726.88
2023-07-15T19:35:00.961Z,96723.31
2023-07-15T19:38:03.094Z,96695.03
2023-07-15T19:41:04.672Z,96707.41
2023-07-15T19:44:06.250Z,96729.22
2023-07-15T19:47:07.993Z,96749.44
2023-07-15T19:50:10.024Z,96771.81
2023-07-15T19:53:12.229Z,96767.91
2023-07-15T19:56:14.103Z,96802.81
2023-07-15T19:59:15.846Z,96776.72
2023-07-15T20:02:17.416Z,96801.09
2023-07-15T20:05:19.144Z,96894.66
2023-07-15T20:08:20.697Z,96925.63
2023-07-15T20:11:22.287Z,96868.97
2023-07-15T20:14:23.929Z,96840.59
2023-07-15T20:17:25.582Z,96868.88
2023-07-15T20:20:27.170Z,96868.72
2023-07-15T20:23:28.661Z,96868.59
2023-07-15T20:26:30.253Z,96858.16
2023-07-15T20:29:32.201Z,96873.50
2023-07-15T20:32:33.700Z,96894.56
2023-07-15T20:35:35.277Z,96896.28
2023-07-15T20:38:37.101Z,96842.44
2023-07-15T20:41:38.763Z,96842.44
2023-07-15T20:44:40.408Z,96863.28
2023-07-15T20:47:44.034Z,96850.91
2023-07-15T20:50:45.742Z,96834.47
2023-07-15T20:53:47.409Z,96863.84
2023-07-15T20:56:48.918Z,96866.56
2023-07-15T20:59:50.796Z,96867.38
2023-07-15T21:02:54.439Z,96847.94
2023-07-15T21:06:04.396Z,96856.53
2023-07-15T21:09:05.912Z,96860.25
2023-07-15T21:12:07.861Z,96867.53
2023-07-15T21:15:09.802Z,96876.94
2023-07-15T21:18:11.391Z,96885.56
2023-07-15T21:21:13.028Z,96880.19
2023-07-15T21:24:14.604Z,96904.97
2023-07-15T21:27:16.237Z,96906.56
2023-07-15T21:30:17.888Z,96917.31
2023-07-15T21:33:19.416Z,96945.41
2023-07-15T21:36:25.937Z,96962.63
2023-07-15T21:39:27.501Z,96960.19
2023-07-15T21:42:29.067Z,96971.66
2023-07-15T21:45:30.629Z,97000.44
2023-07-15T21:48:32.202Z,97035.16
2023-07-15T21:51:34.008Z,97020.25
2023-07-15T21:54:35.528Z,97034.13
2023-07-15T21:57:37.100Z,97026.16
2023-07-15T22:00:39.882Z,97031.28
2023-07-15T22:03:41.679Z,97029.53
2023-07-15T22:06:43.306Z,97017.81
2023-07-15T22:09:44.914Z,97049.75
2023-07-15T22:12:46.485Z,97057.75
2023-07-15T22:15:48.057Z,97070.16
2023-07-15T22:18:53.964Z,97085.31
2023-07-15T22:21:55.830Z,97089.53
2023-07-15T22:24:57.326Z,97086.28
2023-07-15T22:27:58.886Z,97103.06
2023-07-15T22:31:00.674Z,97091.16
2023-07-15T22:34:02.268Z,97091.91
2023-07-15T22:37:05.067Z,97115.09
2023-07-15T22:40:07.379Z,97123.88
2023-07-15T22:43:08.885Z,97138.28
2023-07-15T22:46:10.467Z,97150.19
2023-07-15T22:49:12.029Z,97164.56
2023-07-15T22:52:13.536Z,97180.00
2023-07-15T22:55:17.305Z,97168.75
2023-07-15T22:58:18.895Z,97187.13
2023-07-15T23:01:20.604Z,97196.31
2023-07-15T23:04:22.190Z,97190.75
2023-07-15T23:07:23.810Z,97195.56
2023-07-15T23:10:25.357Z,97206.72
2023-07-15T23:13:26.915Z,97193.84
2023-07-15T23:16:28.501Z,97193.03
2023-07-15T23:19:30.045Z,97204.75
2023-07-15T23:22:31.806Z,97203.47
2023-07-15T23:25:34.140Z,97197.75
2023-07-15T23:28:35.756Z,97195.06
2023-07-15T23:31:37.547Z,97209.78
2023-07-15T23:34:39.056Z,97218.41
2023-07-15T23:37:40.686Z,97234.97
2023-07-15T23:40:42.384Z,97229.28
2023-07-15T23:43:43.881Z,97219.16
2023-07-15T23:46:45.412Z,97237.75
2023-07-15T23:49:50.127Z,97241.31
2023-07-15T23:52:51.813Z,97248.13
2023-07-15T23:55:53.320Z,97245.03
2023-07-15T23:58:54.843Z,97245.81
